sensor_id;sensor_type;location;lat;lon;timestamp;pressure;altitude;pressure_sealevel;temperature
79714;BMP280;69206;51.420;5.400;2023-07-28T00:00:38;100468.78;;;17.98
79714;BMP280;69206;51.420;5.400;2023-07-28T00:03:03;100477.00;;;18.09
79714;BMP280;69206;51.420;5.400;2023-07-28T00:05:29;100466.38;;;18.09
79714;BMP280;69206;51.420;5.400;2023-07-28T00:07:54;100451.88;;;18.12
79714;BMP280;69206;51.420;5.400;2023-07-28T00:10:19;100444.69;;;17.99
79714;BMP280;69206;51.420;5.400;2023-07-28T00:12:45;100448.56;;;17.97
79714;BMP280;69206;51.420;5.400;2023-07-28T00:15:10;100462.50;;;18.12
79714;BMP280;69206;51.420;5.400;2023-07-28T00:17:35;100463.47;;;18.04
79714;BMP280;69206;51.420;5.400;2023-07-28T00:20:01;100467.81;;;18.12
79714;BMP280;69206;51.420;5.400;2023-07-28T00:22:26;100423.78;;;17.83
79714;BMP280;69206;51.420;5.400;2023-07-28T00:24:51;100441.78;;;17.94
79714;BMP280;69206;51.420;5.400;2023-07-28T00:27:17;100425.66;;;17.89
79714;BMP280;69206;51.420;5.400;2023-07-28T00:29:43;100450.41;;;18.03
79714;BMP280;69206;51.420;5.400;2023-07-28T00:32:08;100427.88;;;17.86
79714;BMP280;69206;51.420;5.400;2023-07-28T00:34:34;100427.47;;;17.82
79714;BMP280;69206;51.420;5.400;2023-07-28T00:36:59;100431.34;;;17.86
79714;BMP280;69206;51.420;5.400;2023-07-28T00:39:24;100455.50;;;18.04
79714;BMP280;69206;51.420;5.400;2023-07-28T00:41:50;100439.13;;;17.88
79714;BMP280;69206;51.420;5.400;2023-07-28T00:44:15;100460.69;;;18.12
79714;BMP280;69206;51.420;5.400;2023-07-28T00:46:42;100434.66;;;17.95
79714;BMP280;69206;51.420;5.400;2023-07-28T00:49:08;100457.78;;;18.01
79714;BMP280;69206;51.420;5.400;2023-07-28T00:51:35;100457.38;;;18.04
79714;BMP280;69206;51.420;5.400;2023-07-28T00:54:01;100450.78;;;17.93
79714;BMP280;69206;51.420;5.400;2023-07-28T00:56:27;100431.16;;;17.88
79714;BMP280;69206;51.420;5.400;2023-07-28T00:58:53;100460.59;;;17.99
79714;BMP280;69206;51.420;5.400;2023-07-28T01:01:18;100387.19;;;17.66
79714;BMP280;69206;51.420;5.400;2023-07-28T01:03:43;100466.78;;;18.06
79714;BMP280;69206;51.420;5.400;2023-07-28T01:06:18;100434.00;;;17.80
79714;BMP280;69206;51.420;5.400;2023-07-28T01:09:00;100465.13;;;17.99
79714;BMP280;69206;51.420;5.400;2023-07-28T01:11:26;100462.25;;;18.00
79714;BMP280;69206;51.420;5.400;2023-07-28T01:13:51;100439.97;;;17.88
79714;BMP280;69206;51.420;5.400;2023-07-28T01:16:17;100465.56;;;18.02
79714;BMP280;69206;51.420;5.400;2023-07-28T01:18:42;100451.81;;;17.92
79714;BMP280;69206;51.420;5.400;2023-07-28T01:21:16;100428.47;;;17.81
79714;BMP280;69206;51.420;5.400;2023-07-28T01:24:06;100460.59;;;17.99
79714;BMP280;69206;51.420;5.400;2023-07-28T01:26:38;100466.34;;;18.03
79714;BMP280;69206;51.420;5.400;2023-07-28T01:29:05;100466.59;;;18.08
79714;BMP280;69206;51.420;5.400;2023-07-28T01:31:31;100428.31;;;17.89
79714;BMP280;69206;51.420;5.400;2023-07-28T01:33:56;100444.69;;;17.99
79714;BMP280;69206;51.420;5.400;2023-07-28T01:36:21;100380.41;;;17.63
79714;BMP280;69206;51.420;5.400;2023-07-28T01:38:47;100454.09;;;18.02
79714;BMP280;69206;51.420;5.400;2023-07-28T01:41:12;100428.31;;;17.89
79714;BMP280;69206;51.420;5.400;2023-07-28T01:43:37;100426.81;;;17.80
79714;BMP280;69206;51.420;5.400;2023-07-28T01:46:03;100443.84;;;17.92
79714;BMP280;69206;51.420;5.400;2023-07-28T01:48:28;100423.00;;;17.96
79714;BMP280;69206;51.420;5.400;2023-07-28T01:50:53;100461.16;;;18.35
79714;BMP280;69206;51.420;5.400;2023-07-28T01:53:19;100453.31;;;18.14
79714;BMP280;69206;51.420;5.400;2023-07-28T01:55:44;100437.13;;;17.96
79714;BMP280;69206;51.420;5.400;2023-07-28T01:58:09;100423.19;;;17.94
79714;BMP280;69206;51.420;5.400;2023-07-28T02:00:35;100432.28;;;18.13
79714;BMP280;69206;51.420;5.400;2023-07-28T02:03:00;100425.47;;;17.97
79714;BMP280;69206;51.420;5.400;2023-07-28T02:05:30;100427.97;;;18.05
79714;BMP280;69206;51.420;5.400;2023-07-28T02:07:56;100453.78;;;18.37
79714;BMP280;69206;51.420;5.400;2023-07-28T02:10:22;100464.81;;;18.28
79714;BMP280;69206;51.420;5.400;2023-07-28T02:12:49;100422.81;;;17.97
79714;BMP280;69206;51.420;5.400;2023-07-28T02:15:15;100441.84;;;18.07
79714;BMP280;69206;51.420;5.400;2023-07-28T02:17:40;100420.72;;;17.86
79714;BMP280;69206;51.420;5.400;2023-07-28T02:20:06;100460.25;;;18.15
79714;BMP280;69206;51.420;5.400;2023-07-28T02:22:35;100439.81;;;18.22
79714;BMP280;69206;51.420;5.400;2023-07-28T02:25:01;100462.16;;;18.34
79714;BMP280;69206;51.420;5.400;2023-07-28T02:27:27;100437.16;;;18.22
79714;BMP280;69206;51.420;5.400;2023-07-28T02:29:52;100468.44;;;18.27
79714;BMP280;69206;51.420;5.400;2023-07-28T02:32:18;100445.56;;;18.13
79714;BMP280;69206;51.420;5.400;2023-07-28T02:34:43;100434.38;;;18.30
79714;BMP280;69206;51.420;5.400;2023-07-28T02:37:08;100442.31;;;18.17
79714;BMP280;69206;51.420;5.400;2023-07-28T02:39:33;100412.00;;;17.92
79714;BMP280;69206;51.420;5.400;2023-07-28T02:41:59;100456.19;;;18.19
79714;BMP280;69206;51.420;5.400;2023-07-28T02:44:24;100464.34;;;18.18
79714;BMP280;69206;51.420;5.400;2023-07-28T02:46:49;100439.00;;;18.15
79714;BMP280;69206;51.420;5.400;2023-07-28T02:49:15;100456.63;;;18.16
79714;BMP280;69206;51.420;5.400;2023-07-28T02:51:40;100461.69;;;18.18
79714;BMP280;69206;51.420;5.400;2023-07-28T02:54:07;100454.16;;;18.21
79714;BMP280;69206;51.420;5.400;2023-07-28T02:56:32;100458.69;;;18.34
79714;BMP280;69206;51.420;5.400;2023-07-28T02:59:03;100475.44;;;18.28
79714;BMP280;69206;51.420;5.400;2023-07-28T03:01:31;100475.41;;;18.21
79714;BMP280;69206;51.420;5.400;2023-07-28T03:04:01;100486.47;;;18.25
79714;BMP280;69206;51.420;5.400;2023-07-28T03:06:26;100460.69;;;18.12
79714;BMP280;69206;51.420;5.400;2023-07-28T03:08:52;100478.44;;;18.18
79714;BMP280;69206;51.420;5.400;2023-07-28T03:11:17;100487.03;;;18.27
79714;BMP280;69206;51.420;5.400;2023-07-28T03:13:42;100489.91;;;18.25
79714;BMP280;69206;51.420;5.400;2023-07-28T03:16:08;100458.03;;;18.25
79714;BMP280;69206;51.420;5.400;2023-07-28T03:18:33;100469.03;;;18.22
79714;BMP280;69206;51.420;5.400;2023-07-28T03:20:58;100486.47;;;18.31
79714;BMP280;69206;51.420;5.400;2023-07-28T03:23:24;100494.25;;;18.26
79714;BMP280;69206;51.420;5.400;2023-07-28T03:25:49;100481.59;;;18.41
79714;BMP280;69206;51.420;5.400;2023-07-28T03:28:14;100490.53;;;18.27
79714;BMP280;69206;51.420;5.400;2023-07-28T03:30:40;100457.66;;;18.22
79714;BMP280;69206;51.420;5.400;2023-07-28T03:33:05;100468.91;;;18.30
79714;BMP280;69206;51.420;5.400;2023-07-28T03:35:30;100467.59;;;18.13
79714;BMP280;69206;51.420;5.400;2023-07-28T03:37:56;100477.00;;;18.22
79714;BMP280;69206;51.420;5.400;2023-07-28T03:40:21;100500.78;;;18.37
79714;BMP280;69206;51.420;5.400;2023-07-28T03:42:46;100477.44;;;18.19
79714;BMP280;69206;51.420;5.400;2023-07-28T03:45:12;100503.25;;;18.38
79714;BMP280;69206;51.420;5.400;2023-07-28T03:47:37;100496.72;;;18.34
79714;BMP280;69206;51.420;5.400;2023-07-28T03:50:05;100491.00;;;18.37
79714;BMP280;69206;51.420;5.400;2023-07-28T03:52:30;100488.31;;;18.31
79714;BMP280;69206;51.420;5.400;2023-07-28T03:54:56;100489.75;;;18.33
79714;BMP280;69206;51.420;5.400;2023-07-28T03:57:21;100517.94;;;18.41
79714;BMP280;69206;51.420;5.400;2023-07-28T03:59:46;100499.56;;;18.26
79714;BMP280;69206;51.420;5.400;2023-07-28T04:02:11;100490.75;;;18.32
79714;BMP280;69206;51.420;5.400;2023-07-28T04:04:37;100516.72;;;18.37
79714;BMP280;69206;51.420;5.400;2023-07-28T04:07:02;100501.97;;;18.21
79714;BMP280;69206;51.420;5.400;2023-07-28T04:09:28;100485.97;;;18.08
79714;BMP280;69206;51.420;5.400;2023-07-28T04:11:53;100513.47;;;18.41
79714;BMP280;69206;51.420;5.400;2023-07-28T04:14:18;100475.78;;;18.18
79714;BMP280;69206;51.420;5.400;2023-07-28T04:16:44;100480.28;;;18.11
79714;BMP280;69206;51.420;5.400;2023-07-28T04:19:09;100457.19;;;18.05
79714;BMP280;69206;51.420;5.400;2023-07-28T04:21:34;100505.50;;;18.41
79714;BMP280;69206;51.420;5.400;2023-07-28T04:23:59;100515.13;;;18.36
79714;BMP280;69206;51.420;5.400;2023-07-28T04:26:25;100489.31;;;18.23
79714;BMP280;69206;51.420;5.400;2023-07-28T04:28:50;100469.25;;;18.14
79714;BMP280;69206;51.420;5.400;2023-07-28T04:31:16;100512.47;;;18.36
79714;BMP280;69206;51.420;5.400;2023-07-28T04:33:42;100505.69;;;18.33
79714;BMP280;69206;51.420;5.400;2023-07-28T04:36:08;100501.63;;;18.44
79714;BMP280;69206;51.420;5.400;2023-07-28T04:38:33;100479.31;;;18.32
79714;BMP280;69206;51.420;5.400;2023-07-28T04:40:58;100488.53;;;18.36
79714;BMP280;69206;51.420;5.400;2023-07-28T04:43:24;100435.31;;;18.03
79714;BMP280;69206;51.420;5.400;2023-07-28T04:45:49;100479.13;;;18.33
79714;BMP280;69206;51.420;5.400;2023-07-28T04:48:14;100486.03;;;18.21
79714;BMP280;69206;51.420;5.400;2023-07-28T04:50:40;100521.59;;;18.27
79714;BMP280;69206;51.420;5.400;2023-07-28T04:53:05;100514.06;;;18.30
79714;BMP280;69206;51.420;5.400;2023-07-28T04:55:30;100510.56;;;18.23
79714;BMP280;69206;51.420;5.400;2023-07-28T04:57:57;100525.69;;;18.29
79714;BMP280;69206;51.420;5.400;2023-07-28T05:00:22;100524.47;;;18.32
79714;BMP280;69206;51.420;5.400;2023-07-28T05:02:48;100511.59;;;18.29
79714;BMP280;69206;51.420;5.400;2023-07-28T05:05:14;100485.59;;;18.11
79714;BMP280;69206;51.420;5.400;2023-07-28T05:07:39;100522.16;;;18.63
79714;BMP280;69206;51.420;5.400;2023-07-28T05:10:05;100524.75;;;18.50
79714;BMP280;69206;51.420;5.400;2023-07-28T05:12:30;100535.13;;;18.38
79714;BMP280;69206;51.420;5.400;2023-07-28T05:14:55;100536.78;;;18.39
79714;BMP280;69206;51.420;5.400;2023-07-28T05:17:21;100545.34;;;18.41
79714;BMP280;69206;51.420;5.400;2023-07-28T05:19:46;100527.75;;;18.34
79714;BMP280;69206;51.420;5.400;2023-07-28T05:22:11;100543.75;;;18.40
79714;BMP280;69206;51.420;5.400;2023-07-28T05:24:37;100538.44;;;18.40
79714;BMP280;69206;51.420;5.400;2023-07-28T05:27:02;100551.75;;;18.53
79714;BMP280;69206;51.420;5.400;2023-07-28T05:29:28;100559.31;;;18.56
79714;BMP280;69206;51.420;5.400;2023-07-28T05:31:53;100543.75;;;18.40
79714;BMP280;69206;51.420;5.400;2023-07-28T05:34:18;100549.47;;;18.44
79714;BMP280;69206;51.420;5.400;2023-07-28T05:36:44;100553.81;;;18.64
79714;BMP280;69206;51.420;5.400;2023-07-28T05:39:09;100538.84;;;18.50
79714;BMP280;69206;51.420;5.400;2023-07-28T05:41:36;100563.03;;;18.68
79714;BMP280;69206;51.420;5.400;2023-07-28T05:44:02;100568.75;;;18.65
79714;BMP280;69206;51.420;5.400;2023-07-28T05:46:28;100538.03;;;18.50
79714;BMP280;69206;51.420;5.400;2023-07-28T05:48:54;100560.63;;;18.80
79714;BMP280;69206;51.420;5.400;2023-07-28T05:51:20;100540.88;;;18.55
79714;BMP280;69206;51.420;5.400;2023-07-28T05:53:46;100539.50;;;18.65
79714;BMP280;69206;51.420;5.400;2023-07-28T05:56:12;100553.63;;;18.66
79714;BMP280;69206;51.420;5.400;2023-07-28T05:58:37;100574.94;;;18.92
79714;BMP280;69206;51.420;5.400;2023-07-28T06:01:03;100568.78;;;18.91
79714;BMP280;69206;51.420;5.400;2023-07-28T06:03:28;100558.59;;;18.88
79714;BMP280;69206;51.420;5.400;2023-07-28T06:05:54;100550.97;;;18.72
79714;BMP280;69206;51.420;5.400;2023-07-28T06:08:19;100567.38;;;18.95
79714;BMP280;69206;51.420;5.400;2023-07-28T06:10:44;100545.03;;;18.77
79714;BMP280;69206;51.420;5.400;2023-07-28T06:13:10;100571.63;;;18.90
79714;BMP280;69206;51.420;5.400;2023-07-28T06:15:38;100574.09;;;18.91
79714;BMP280;69206;51.420;5.400;2023-07-28T06:18:04;100552.44;;;18.81
79714;BMP280;69206;51.420;5.400;2023-07-28T06:20:29;100579.06;;;19.07
79714;BMP280;69206;51.420;5.400;2023-07-28T06:22:55;100545.09;;;18.96
79714;BMP280;69206;51.420;5.400;2023-07-28T06:25:20;100582.16;;;19.11
79714;BMP280;69206;51.420;5.400;2023-07-28T06:27:46;100543.84;;;19.05
79714;BMP280;69206;51.420;5.400;2023-07-28T06:30:11;100563.72;;;19.03
79714;BMP280;69206;51.420;5.400;2023-07-28T06:32:37;100542.22;;;18.85
79714;BMP280;69206;51.420;5.400;2023-07-28T06:35:02;100581.91;;;19.12
79714;BMP280;69206;51.420;5.400;2023-07-28T06:37:28;100581.72;;;19.07
79714;BMP280;69206;51.420;5.400;2023-07-28T06:39:54;100579.69;;;19.09
79714;BMP280;69206;51.420;5.400;2023-07-28T06:42:21;100585.44;;;19.19
79714;BMP280;69206;51.420;5.400;2023-07-28T06:44:49;100589.50;;;19.15
79714;BMP280;69206;51.420;5.400;2023-07-28T06:47:17;100590.94;;;19.24
79714;BMP280;69206;51.420;5.400;2023-07-28T06:49:43;100581.53;;;19.28
79714;BMP280;69206;51.420;5.400;2023-07-28T06:52:08;100541.81;;;19.14
79714;BMP280;69206;51.420;5.400;2023-07-28T06:54:34;100561.47;;;19.32
79714;BMP280;69206;51.420;5.400;2023-07-28T06:57:00;100577.00;;;19.48
79714;BMP280;69206;51.420;5.400;2023-07-28T06:59:26;100583.13;;;19.61
79714;BMP280;69206;51.420;5.400;2023-07-28T07:01:51;100525.22;;;19.31
79714;BMP280;69206;51.420;5.400;2023-07-28T07:04:17;100588.44;;;19.68
79714;BMP280;69206;51.420;5.400;2023-07-28T07:06:42;100592.94;;;19.74
79714;BMP280;69206;51.420;5.400;2023-07-28T07:09:08;100599.09;;;19.68
79714;BMP280;69206;51.420;5.400;2023-07-28T07:11:33;100597.66;;;19.65
79714;BMP280;69206;51.420;5.400;2023-07-28T07:13:59;100602.19;;;19.58
79714;BMP280;69206;51.420;5.400;2023-07-28T07:16:24;100564.34;;;19.37
79714;BMP280;69206;51.420;5.400;2023-07-28T07:18:51;100616.31;;;19.72
79714;BMP280;69206;51.420;5.400;2023-07-28T07:21:16;100608.13;;;19.73
79714;BMP280;69206;51.420;5.400;2023-07-28T07:23:42;100605.88;;;19.64
79714;BMP280;69206;51.420;5.400;2023-07-28T07:26:07;100613.44;;;19.60
79714;BMP280;69206;51.420;5.400;2023-07-28T07:28:33;100609.09;;;19.72
79714;BMP280;69206;51.420;5.400;2023-07-28T07:31:00;100612.41;;;19.87
79714;BMP280;69206;51.420;5.400;2023-07-28T07:33:26;100611.00;;;19.72
79714;BMP280;69206;51.420;5.400;2023-07-28T07:35:51;100571.69;;;19.48
79714;BMP280;69206;51.420;5.400;2023-07-28T07:38:16;100611.38;;;19.69
79714;BMP280;69206;51.420;5.400;2023-07-28T07:40:41;100533.84;;;19.33
79714;BMP280;69206;51.420;5.400;2023-07-28T07:43:07;100623.25;;;19.92
79714;BMP280;69206;51.420;5.400;2023-07-28T07:45:32;100623.00;;;19.94
79714;BMP280;69206;51.420;5.400;2023-07-28T07:47:58;100617.13;;;19.66
79714;BMP280;69206;51.420;5.400;2023-07-28T07:50:24;100610.59;;;19.75
79714;BMP280;69206;51.420;5.400;2023-07-28T07:52:49;100615.88;;;19.88
79714;BMP280;69206;51.420;5.400;2023-07-28T07:55:16;100607.25;;;19.86
79714;BMP280;69206;51.420;5.400;2023-07-28T07:57:41;100610.69;;;20.12
79714;BMP280;69206;51.420;5.400;2023-07-28T08:00:08;100591.25;;;19.99
79714;BMP280;69206;51.420;5.400;2023-07-28T08:02:35;100606.41;;;19.98
79714;BMP280;69206;51.420;5.400;2023-07-28T08:05:00;100603.78;;;19.85
79714;BMP280;69206;51.420;5.400;2023-07-28T08:07:26;100637.28;;;20.19
79714;BMP280;69206;51.420;5.400;2023-07-28T08:09:51;100611.72;;;20.11
79714;BMP280;69206;51.420;5.400;2023-07-28T08:12:17;100651.75;;;20.49
79714;BMP280;69206;51.420;5.400;2023-07-28T08:14:43;100583.47;;;19.91
79714;BMP280;69206;51.420;5.400;2023-07-28T08:17:09;100654.25;;;20.44
79714;BMP280;69206;51.420;5.400;2023-07-28T08:19:34;100615.41;;;20.17
79714;BMP280;69206;51.420;5.400;2023-07-28T08:22:01;100657.13;;;20.36
79714;BMP280;69206;51.420;5.400;2023-07-28T08:24:28;100652.44;;;20.31
79714;BMP280;69206;51.420;5.400;2023-07-28T08:26:54;100636.19;;;20.46
79714;BMP280;69206;51.420;5.400;2023-07-28T08:29:20;100643.75;;;20.49
79714;BMP280;69206;51.420;5.400;2023-07-28T08:31:45;100639.84;;;20.58
79714;BMP280;69206;51.420;5.400;2023-07-28T08:34:10;100648.00;;;20.63
79714;BMP280;69206;51.420;5.400;2023-07-28T08:36:36;100654.78;;;21.02
79714;BMP280;69206;51.420;5.400;2023-07-28T08:39:01;100648.72;;;21.13
79714;BMP280;69206;51.420;5.400;2023-07-28T08:41:27;100631.69;;;21.14
79714;BMP280;69206;51.420;5.400;2023-07-28T08:43:53;100664.84;;;21.74
79714;BMP280;69206;51.420;5.400;2023-07-28T08:46:19;100622.19;;;21.43
79714;BMP280;69206;51.420;5.400;2023-07-28T08:48:45;100637.72;;;21.52
79714;BMP280;69206;51.420;5.400;2023-07-28T08:51:12;100669.47;;;21.60
79714;BMP280;69206;51.420;5.400;2023-07-28T08:53:38;100658.69;;;21.73
79714;BMP280;69206;51.420;5.400;2023-07-28T08:56:04;100601.97;;;21.53
79714;BMP280;69206;51.420;5.400;2023-07-28T08:58:29;100626.00;;;21.53
79714;BMP280;69206;51.420;5.400;2023-07-28T09:00:55;100601.44;;;21.45
79714;BMP280;69206;51.420;5.400;2023-07-28T09:03:21;100663.47;;;22.07
79714;BMP280;69206;51.420;5.400;2023-07-28T09:05:48;100663.41;;;21.96
79714;BMP280;69206;51.420;5.400;2023-07-28T09:08:14;100665.38;;;22.00
79714;BMP280;69206;51.420;5.400;2023-07-28T09:10:49;100664.97;;;22.03
79714;BMP280;69206;51.420;5.400;2023-07-28T09:13:17;100658.00;;;22.02
79714;BMP280;69206;51.420;5.400;2023-07-28T09:15:42;100638.66;;;22.18
79714;BMP280;69206;51.420;5.400;2023-07-28T09:18:14;100670.28;;;22.39
79714;BMP280;69206;51.420;5.400;2023-07-28T09:20:41;100637.31;;;22.27
79714;BMP280;69206;51.420;5.400;2023-07-28T09:23:10;100658.78;;;22.68
79714;BMP280;69206;51.420;5.400;2023-07-28T09:25:37;100664.53;;;22.83
79714;BMP280;69206;51.420;5.400;2023-07-28T09:28:03;100661.28;;;22.81
79714;BMP280;69206;51.420;5.400;2023-07-28T09:30:47;100641.28;;;22.54
79714;BMP280;69206;51.420;5.400;2023-07-28T09:33:28;100651.41;;;22.81
79714;BMP280;69206;51.420;5.400;2023-07-28T09:35:55;100672.56;;;22.83
79714;BMP280;69206;51.420;5.400;2023-07-28T09:38:22;100651.44;;;22.93
79714;BMP280;69206;51.420;5.400;2023-07-28T09:40:48;100671.47;;;23.02
79714;BMP280;69206;51.420;5.400;2023-07-28T09:43:14;100667.44;;;23.11
79714;BMP280;69206;51.420;5.400;2023-07-28T09:45:39;100667.59;;;22.86
79714;BMP280;69206;51.420;5.400;2023-07-28T09:48:06;100640.19;;;22.73
79714;BMP280;69206;51.420;5.400;2023-07-28T09:50:36;100672.41;;;22.96
79714;BMP280;69206;51.420;5.400;2023-07-28T09:53:03;100655.22;;;23.15
79714;BMP280;69206;51.420;5.400;2023-07-28T09:55:29;100682.59;;;23.40
79714;BMP280;69206;51.420;5.400;2023-07-28T09:57:56;100684.22;;;23.41
79714;BMP280;69206;51.420;5.400;2023-07-28T10:00:23;100682.06;;;23.61
79714;BMP280;69206;51.420;5.400;2023-07-28T10:02:49;100675.38;;;23.52
79714;BMP280;69206;51.420;5.400;2023-07-28T10:05:15;100681.44;;;23.36
79714;BMP280;69206;51.420;5.400;2023-07-28T10:07:42;100679.69;;;23.30
79714;BMP280;69206;51.420;5.400;2023-07-28T10:10:11;100657.50;;;23.00
79714;BMP280;69206;51.420;5.400;2023-07-28T10:12:50;100677.00;;;23.30
79714;BMP280;69206;51.420;5.400;2023-07-28T10:15:17;100686.72;;;23.54
79714;BMP280;69206;51.420;5.400;2023-07-28T10:17:45;100684.25;;;23.52
79714;BMP280;69206;51.420;5.400;2023-07-28T10:20:32;100659.44;;;23.45
79714;BMP280;69206;51.420;5.400;2023-07-28T10:23:12;100685.44;;;24.07
79714;BMP280;69206;51.420;5.400;2023-07-28T10:25:39;100682.00;;;23.95
79714;BMP280;69206;51.420;5.400;2023-07-28T10:28:07;100680.75;;;23.75
79714;BMP280;69206;51.420;5.400;2023-07-28T10:30:38;100680.38;;;23.60
79714;BMP280;69206;51.420;5.400;2023-07-28T10:33:04;100680.06;;;23.56
79714;BMP280;69206;51.420;5.400;2023-07-28T10:35:29;100690.03;;;23.95
79714;BMP280;69206;51.420;5.400;2023-07-28T10:37:57;100670.69;;;23.93
79714;BMP280;69206;51.420;5.400;2023-07-28T10:40:30;100673.91;;;24.18
79714;BMP280;69206;51.420;5.400;2023-07-28T10:42:57;100620.53;;;24.05
79714;BMP280;69206;51.420;5.400;2023-07-28T10:45:24;100649.16;;;24.27
79714;BMP280;69206;51.420;5.400;2023-07-28T10:47:51;100632.00;;;23.89
79714;BMP280;69206;51.420;5.400;2023-07-28T10:50:16;100676.06;;;24.32
79714;BMP280;69206;51.420;5.400;2023-07-28T10:52:43;100681.97;;;24.74
79714;BMP280;69206;51.420;5.400;2023-07-28T10:55:20;100680.34;;;24.45
79714;BMP280;69206;51.420;5.400;2023-07-28T10:57:48;100658.28;;;24.26
79714;BMP280;69206;51.420;5.400;2023-07-28T11:00:16;100679.41;;;24.51
79714;BMP280;69206;51.420;5.400;2023-07-28T11:02:42;100656.09;;;24.40
79714;BMP280;69206;51.420;5.400;2023-07-28T11:05:19;100650.22;;;24.26
79714;BMP280;69206;51.420;5.400;2023-07-28T11:07:44;100671.41;;;25.16
79714;BMP280;69206;51.420;5.400;2023-07-28T11:10:10;100676.78;;;25.16
79714;BMP280;69206;51.420;5.400;2023-07-28T11:12:44;100674.91;;;25.33
79714;BMP280;69206;51.420;5.400;2023-07-28T11:15:11;100676.72;;;25.28
79714;BMP280;69206;51.420;5.400;2023-07-28T11:17:39;100642.03;;;24.77
79714;BMP280;69206;51.420;5.400;2023-07-28T11:20:15;100667.09;;;24.99
79714;BMP280;69206;51.420;5.400;2023-07-28T11:22:42;100664.44;;;25.32
79714;BMP280;69206;51.420;5.400;2023-07-28T11:25:08;100669.28;;;25.51
79714;BMP280;69206;51.420;5.400;2023-07-28T11:27:35;100640.47;;;25.47
79714;BMP280;69206;51.420;5.400;2023-07-28T11:30:01;100649.81;;;25.61
79714;BMP280;69206;51.420;5.400;2023-07-28T11:32:28;100672.03;;;26.16
79714;BMP280;69206;51.420;5.400;2023-07-28T11:34:54;100672.81;;;25.95
79714;BMP280;69206;51.420;5.400;2023-07-28T11:37:20;100671.19;;;26.36
79714;BMP280;69206;51.420;5.400;2023-07-28T11:39:45;100665.78;;;25.72
79714;BMP280;69206;51.420;5.400;2023-07-28T11:42:11;100667.91;;;25.87
79714;BMP280;69206;51.420;5.400;2023-07-28T11:44:37;100675.59;;;25.24
79714;BMP280;69206;51.420;5.400;2023-07-28T11:47:04;100610.25;;;25.02
79714;BMP280;69206;51.420;5.400;2023-07-28T11:49:30;100635.44;;;25.34
79714;BMP280;69206;51.420;5.400;2023-07-28T11:51:56;100617.78;;;25.05
79714;BMP280;69206;51.420;5.400;2023-07-28T11:54:25;100682.50;;;25.20
79714;BMP280;69206;51.420;5.400;2023-07-28T11:56:53;100680.78;;;24.81
79714;BMP280;69206;51.420;5.400;2023-07-28T11:59:20;100671.97;;;24.86
79714;BMP280;69206;51.420;5.400;2023-07-28T12:01:59;100669.03;;;24.71
79714;BMP280;69206;51.420;5.400;2023-07-28T12:04:27;100680.94;;;24.91
79714;BMP280;69206;51.420;5.400;2023-07-28T12:07:13;100688.03;;;24.97
79714;BMP280;69206;51.420;5.400;2023-07-28T12:12:40;100661.16;;;24.64
79714;BMP280;69206;51.420;5.400;2023-07-28T12:15:29;100699.06;;;24.56
79714;BMP280;69206;51.420;5.400;2023-07-28T12:18:12;100683.16;;;24.38
79714;BMP280;69206;51.420;5.400;2023-07-28T12:20:48;100664.19;;;24.28
79714;BMP280;69206;51.420;5.400;2023-07-28T12:23:17;100672.00;;;24.58
79714;BMP280;69206;51.420;5.400;2023-07-28T12:25:43;100698.13;;;24.62
79714;BMP280;69206;51.420;5.400;2023-07-28T12:28:09;100680.09;;;24.46
79714;BMP280;69206;51.420;5.400;2023-07-28T12:30:35;100701.28;;;24.59
79714;BMP280;69206;51.420;5.400;2023-07-28T12:33:00;100700.31;;;24.93
79714;BMP280;69206;51.420;5.400;2023-07-28T12:35:27;100698.31;;;24.72
79714;BMP280;69206;51.420;5.400;2023-07-28T12:37:57;100694.28;;;24.86
79714;BMP280;69206;51.420;5.400;2023-07-28T12:40:26;100695.34;;;24.85
79714;BMP280;69206;51.420;5.400;2023-07-28T12:42:52;100665.22;;;25.00
79714;BMP280;69206;51.420;5.400;2023-07-28T12:45:17;100680.63;;;25.37
79714;BMP280;69206;51.420;5.400;2023-07-28T12:47:43;100699.75;;;25.57
79714;BMP280;69206;51.420;5.400;2023-07-28T12:50:09;100671.69;;;25.31
79714;BMP280;69206;51.420;5.400;2023-07-28T12:52:35;100680.47;;;25.27
79714;BMP280;69206;51.420;5.400;2023-07-28T12:55:01;100694.94;;;25.42
79714;BMP280;69206;51.420;5.400;2023-07-28T12:57:26;100669.38;;;24.74
79714;BMP280;69206;51.420;5.400;2023-07-28T12:59:52;100656.69;;;24.86
79714;BMP280;69206;51.420;5.400;2023-07-28T13:02:17;100677.19;;;24.92
79714;BMP280;69206;51.420;5.400;2023-07-28T13:04:43;100678.25;;;24.91
79714;BMP280;69206;51.420;5.400;2023-07-28T13:07:08;100709.53;;;24.69
79714;BMP280;69206;51.420;5.400;2023-07-28T13:09:33;100710.56;;;25.29
79714;BMP280;69206;51.420;5.400;2023-07-28T13:11:59;100705.19;;;25.62
79714;BMP280;69206;51.420;5.400;2023-07-28T13:14:24;100708.47;;;25.85
79714;BMP280;69206;51.420;5.400;2023-07-28T13:16:50;100674.88;;;25.50
79714;BMP280;69206;51.420;5.400;2023-07-28T13:19:15;100701.91;;;25.98
79714;BMP280;69206;51.420;5.400;2023-07-28T13:21:41;100693.72;;;26.30
79714;BMP280;69206;51.420;5.400;2023-07-28T13:24:06;100699.69;;;25.95
79714;BMP280;69206;51.420;5.400;2023-07-28T13:26:32;100704.94;;;25.63
79714;BMP280;69206;51.420;5.400;2023-07-28T13:28:57;100696.03;;;26.01
79714;BMP280;69206;51.420;5.400;2023-07-28T13:31:26;100679.84;;;25.96
79714;BMP280;69206;51.420;5.400;2023-07-28T13:33:52;100653.94;;;25.14
79714;BMP280;69206;51.420;5.400;2023-07-28T13:36:17;100682.81;;;25.78
79714;BMP280;69206;51.420;5.400;2023-07-28T13:38:42;100681.16;;;25.93
79714;BMP280;69206;51.420;5.400;2023-07-28T13:41:07;100704.16;;;26.27
79714;BMP280;69206;51.420;5.400;2023-07-28T13:43:33;100690.19;;;26.83
79714;BMP280;69206;51.420;5.400;2023-07-28T13:46:03;100691.03;;;26.35
79714;BMP280;69206;51.420;5.400;2023-07-28T13:48:30;100643.81;;;25.54
79714;BMP280;69206;51.420;5.400;2023-07-28T13:50:55;100691.47;;;25.80
79714;BMP280;69206;51.420;5.400;2023-07-28T13:53:20;100705.19;;;25.62
79714;BMP280;69206;51.420;5.400;2023-07-28T13:55:46;100703.19;;;25.74